Time;durP1;ratioP1;P1;durP2;ratioP2;P2;SDS_P1;SDS_P2;PMS_P1;PMS_P2;Temp;Humidity;BMP_temperature;BMP_pressure;BME280_temperature;BME280_humidity;BME280_pressure;Samples;Min_cycle;Max_cycle;Signal;HPM_P1;HPM_P2
2021/12/24 00:00:09;;;;;;;56.50;29.80;;;;;;;9.24;73.01;99803.75;685636;28;1570;-85
2021/12/24 00:00:30;;;;;;;58.75;31.05;;;;;;;9.29;73.05;99808.19;682805;28;1096;-85
2021/12/24 00:00:51;;;;;;;60.77;31.60;;;;;;;9.24;72.81;99801.16;684176;28;1207;-85
2021/12/24 00:01:17;;;;;;;61.60;32.47;;;;;;;9.28;73.27;99809.03;688039;28;1153;-85
2021/12/24 00:01:38;;;;;;;62.13;33.88;;;;;;;9.25;72.88;99803.78;687573;28;787;-85
2021/12/24 00:01:59;;;;;;;58.10;33.00;;;;;;;9.29;73.12;99810.78;687763;28;1100;-85
2021/12/24 00:02:19;;;;;;;56.10;32.60;;;;;;;9.29;73.00;99805.59;685262;28;1235;-85
2021/12/24 00:02:40;;;;;;;56.85;32.08;;;;;;;9.28;73.15;99795.16;685603;28;784;-85
2021/12/24 00:03:14;;;;;;;58.13;31.95;;;;;;;9.28;73.31;99790.81;682940;29;1048;-85
2021/12/24 00:03:37;;;;;;;56.22;31.42;;;;;;;9.29;72.97;99796.91;682761;28;1212;-85
2021/12/24 00:03:58;;;;;;;53.67;32.10;;;;;;;9.30;73.08;99796.94;687738;28;1477;-85
2021/12/24 00:04:19;;;;;;;55.45;33.17;;;;;;;9.35;73.20;99801.34;685427;28;1123;-85
2021/12/24 00:04:40;;;;;;;54.67;32.10;;;;;;;9.31;73.05;99803.91;682796;28;1244;-86
2021/12/24 00:05:00;;;;;;;54.80;31.65;;;;;;;9.36;73.12;99808.31;684988;28;1214;-85
2021/12/24 00:05:21;;;;;;;53.17;30.53;;;;;;;9.29;73.06;99797.78;688069;28;1171;-85
2021/12/24 00:05:42;;;;;;;52.47;29.88;;;;;;;9.34;72.97;99802.19;687572;28;1550;-85
2021/12/24 00:06:04;;;;;;;53.30;29.90;;;;;;;9.31;73.07;99796.09;688034;28;1443;-85
2021/12/24 00:06:25;;;;;;;51.75;29.70;;;;;;;9.30;73.23;99799.56;688170;28;1335;-86
2021/12/24 00:06:45;;;;;;;51.37;29.83;;;;;;;9.31;72.90;99796.09;693606;28;1248;-85
2021/12/24 00:07:06;;;;;;;51.83;29.45;;;;;;;9.32;73.36;99789.16;688113;28;1136;-85
2021/12/24 00:07:27;;;;;;;53.00;30.10;;;;;;;9.30;73.17;99793.47;688060;28;1503;-85
2021/12/24 00:08:13;;;;;;;52.80;29.92;;;;;;;9.38;72.97;99809.19;687648;28;1520;-84
2021/12/24 00:08:34;;;;;;;50.05;28.92;;;;;;;9.31;72.83;99790.91;687036;28;1378;-85
2021/12/24 00:08:55;;;;;;;50.28;29.13;;;;;;;9.33;72.69;99793.50;685306;28;1060;-85
2021/12/24 00:09:22;;;;;;;48.78;28.55;;;;;;;9.34;72.95;99797.00;684970;28;1113;-85
2021/12/24 00:09:42;;;;;;;47.25;28.35;;;;;;;9.30;72.96;99793.47;683290;28;1512;-85
2021/12/24 00:10:06;;;;;;;48.33;28.05;;;;;;;9.32;73.11;99787.44;685337;28;1103;-85
2021/12/24 00:10:27;;;;;;;48.78;27.40;;;;;;;9.34;73.32;99794.38;688169;28;1328;-84
2021/12/24 00:10:57;;;;;;;49.60;27.13;;;;;;;9.31;73.14;99790.00;687312;28;1287;-84
2021/12/24 00:11:17;;;;;;;47.33;28.23;;;;;;;9.33;73.11;99788.28;687949;28;1138;-85
2021/12/24 00:11:39;;;;;;;46.42;28.23;;;;;;;9.39;72.78;99795.34;688166;28;1168;-84
2021/12/24 00:12:03;;;;;;;44.45;27.15;;;;;;;9.32;73.22;99787.44;687911;28;1167;-84
2021/12/24 00:12:26;;;;;;;44.90;26.40;;;;;;;9.37;72.98;99789.22;685296;28;1911;-84
2021/12/24 00:12:56;;;;;;;45.30;26.25;;;;;;;9.31;72.82;99790.91;682758;29;1183;-85
2021/12/24 00:13:18;;;;;;;46.33;26.55;;;;;;;9.33;73.05;99780.47;685306;28;1020;-84
2021/12/24 00:13:42;;;;;;;45.90;26.20;;;;;;;9.34;73.09;99791.78;685506;28;886;-85
2021/12/24 00:14:06;;;;;;;44.67;26.02;;;;;;;9.29;73.19;99784.75;685251;28;1377;-85
2021/12/24 00:14:28;;;;;;;43.80;25.55;;;;;;;9.33;73.08;99785.69;680178;28;1319;-86
2021/12/24 00:14:53;;;;;;;44.47;26.02;;;;;;;9.35;73.19;99790.94;682596;29;1123;-86
2021/12/24 00:16:07;;;;;;;43.47;26.40;;;;;;;9.29;73.21;99784.75;683875;28;1143;-86
2021/12/24 00:16:42;;;;;;;43.50;26.35;;;;;;;9.30;73.09;99783.03;685499;28;1129;-87
2021/12/24 00:17:05;;;;;;;44.55;26.15;;;;;;;9.37;73.16;99799.63;690771;28;1156;-87
2021/12/24 00:17:38;;;;;;;44.70;25.85;;;;;;;9.30;73.07;99783.03;688254;28;752;-87
2021/12/24 00:18:17;;;;;;;40.45;24.40;;;;;;;9.36;73.35;99792.69;687433;28;1599;-87
2021/12/24 00:19:44;;;;;;;41.08;25.20;;;;;;;9.34;73.09;99783.97;682726;28;1363;-88
2021/12/24 00:20:39;;;;;;;37.80;24.48;;;;;;;9.37;73.42;99794.44;688981;28;1269;-87
2021/12/24 00:23:19;;;;;;;35.60;22.30;;;;;;;9.36;73.40;99784.88;689111;28;1722;-88
2021/12/24 00:35:33;;;;;;;32.33;20.40;;;;;;;9.49;73.07;99779.03;687261;28;1730;-85
2021/12/24 00:35:54;;;;;;;30.67;20.50;;;;;;;9.48;73.23;99773.78;687078;28;1311;-86
2021/12/24 00:38:08;;;;;;;31.33;19.17;;;;;;;9.55;73.11;99779.13;692215;28;2029;-87
2021/12/24 00:38:29;;;;;;;31.20;18.80;;;;;;;9.53;73.05;99775.59;688024;28;1366;-86
2021/12/24 00:38:51;;;;;;;31.00;18.90;;;;;;;9.50;73.19;99778.16;685139;28;1155;-86
2021/12/24 00:39:11;;;;;;;29.67;18.52;;;;;;;9.50;73.06;99775.56;682234;28;1240;-86
2021/12/24 00:39:39;;;;;;;29.08;18.65;;;;;;;9.55;73.23;99773.94;682694;28;827;-87
2021/12/24 00:40:17;;;;;;;28.45;18.95;;;;;;;9.53;73.27;99786.03;683228;28;1724;-86
2021/12/24 00:40:41;;;;;;;32.22;20.60;;;;;;;9.56;73.16;99767.88;685199;28;1255;-86
2021/12/24 00:41:02;;;;;;;34.45;21.30;;;;;;;9.52;73.08;99773.84;685351;28;1003;-86
2021/12/24 00:41:22;;;;;;;33.85;21.13;;;;;;;9.52;72.93;99776.47;684813;28;783;-86
2021/12/24 00:41:43;;;;;;;35.70;22.10;;;;;;;9.54;73.65;99777.38;684608;28;1498;-86
2021/12/24 00:42:04;;;;;;;36.77;22.60;;;;;;;9.53;73.41;99774.75;685254;28;1531;-87
2021/12/24 00:42:24;;;;;;;37.10;22.63;;;;;;;9.58;73.45;99778.28;682690;28;815;-86
2021/12/24 00:42:58;;;;;;;37.67;22.13;;;;;;;9.52;73.39;99768.66;686383;28;1238;-86
2021/12/24 00:43:21;;;;;;;38.55;22.00;;;;;;;9.58;73.25;99776.56;687924;28;1138;-87
2021/12/24 00:43:42;;;;;;;37.95;21.98;;;;;;;9.61;73.22;99780.94;682607;28;1217;-87
2021/12/24 00:44:03;;;;;;;36.90;22.25;;;;;;;9.62;73.42;99784.41;685268;28;1158;-86
2021/12/24 00:44:24;;;;;;;38.00;23.10;;;;;;;9.51;73.07;99764.28;688141;28;1542;-86
2021/12/24 00:44:44;;;;;;;39.55;23.33;;;;;;;9.50;73.43;99769.47;686410;28;1231;-86
2021/12/24 00:45:05;;;;;;;41.17;23.80;;;;;;;9.56;73.52;99786.09;687932;28;1271;-86
2021/12/24 00:45:29;;;;;;;45.10;25.17;;;;;;;9.55;73.11;99773.94;687366;28;1241;-86
2021/12/24 00:45:50;;;;;;;45.42;25.85;;;;;;;9.54;73.09;99763.47;685354;28;1083;-86
2021/12/24 00:46:11;;;;;;;43.40;24.90;;;;;;;9.57;73.23;99768.72;685437;28;1072;-86
2021/12/24 00:46:32;;;;;;;40.05;23.83;;;;;;;9.59;73.22;99775.72;688093;28;1156;-85
2021/12/24 00:46:52;;;;;;;43.65;24.45;;;;;;;9.57;73.24;99774.81;682497;29;1532;-85
2021/12/24 00:47:27;;;;;;;46.30;25.45;;;;;;;9.58;73.15;99762.66;682273;29;1218;-87
2021/12/24 00:47:49;;;;;;;44.58;25.85;;;;;;;9.56;73.34;99765.25;682305;28;1453;-87
2021/12/24 00:48:14;;;;;;;42.75;25.45;;;;;;;9.55;73.20;99767.81;685358;28;1032;-87
2021/12/24 00:48:35;;;;;;;44.22;24.85;;;;;;;9.60;73.30;99777.47;684328;28;1089;-87
2021/12/24 00:48:59;;;;;;;45.28;24.45;;;;;;;9.65;73.63;99779.28;690163;28;1112;-87
2021/12/24 00:49:20;;;;;;;46.00;25.08;;;;;;;9.64;73.14;99772.31;690209;28;1180;-88
2021/12/24 00:49:42;;;;;;;45.72;25.73;;;;;;;9.63;73.06;99773.19;687619;28;2024;-88
2021/12/24 00:50:07;;;;;;;45.58;25.88;;;;;;;9.66;73.13;99775.81;685259;28;1109;-88
2021/12/24 00:50:32;;;;;;;47.20;25.27;;;;;;;9.65;73.15;99784.47;685256;28;869;-88
2021/12/24 00:51:22;;;;;;;45.40;25.70;;;;;;;9.62;73.28;99774.00;684504;28;1171;-88
2021/12/24 00:52:07;;;;;;;44.53;26.00;;;;;;;9.60;73.09;99767.03;680649;28;1096;-87
2021/12/24 00:52:46;;;;;;;42.67;25.88;;;;;;;9.65;72.91;99763.66;690033;28;1914;-87
2021/12/24 00:55:02;;;;;;;42.97;25.67;;;;;;;9.67;73.25;99774.97;685189;28;1313;-87
2021/12/24 00:55:05;;;;;;;47.50;26.10;;;;;;;9.62;73.54;99747.94;684585;28;1364;-85
2021/12/24 00:55:28;;;;;;;42.00;24.95;;;;;;;9.70;73.11;99778.50;688067;28;854;-84
2021/12/24 00:55:48;;;;;;;42.00;24.13;;;;;;;9.66;73.32;99770.59;686081;28;1405;-87
2021/12/24 00:56:12;;;;;;;41.60;23.40;;;;;;;9.71;73.21;99768.97;685283;28;1256;-87
2021/12/24 00:56:33;;;;;;;42.22;24.20;;;;;;;9.66;73.29;99754.97;685415;28;874;-88
2021/12/24 00:56:53;;;;;;;43.40;25.45;;;;;;;9.66;73.49;99760.19;686179;28;925;-87
2021/12/24 00:57:14;;;;;;;43.30;25.60;;;;;;;9.68;73.15;99763.69;680058;28;1236;-87
2021/12/24 00:57:38;;;;;;;44.37;25.60;;;;;;;9.65;73.32;99759.28;688130;28;1233;-87
2021/12/24 00:58:04;;;;;;;44.00;24.98;;;;;;;9.68;73.39;99768.88;693362;28;1134;-87
2021/12/24 00:58:25;;;;;;;44.40;25.02;;;;;;;9.70;73.14;99769.78;690761;28;1308;-87
2021/12/24 00:58:47;;;;;;;45.88;26.10;;;;;;;9.68;73.24;99768.88;690278;28;1716;-87
2021/12/24 00:59:08;;;;;;;45.65;26.00;;;;;;;9.69;73.42;99770.63;693227;28;1552;-86
2021/12/24 00:59:29;;;;;;;45.57;26.03;;;;;;;9.76;73.15;99772.50;692985;28;795;-85
2021/12/24 00:59:50;;;;;;;44.97;26.33;;;;;;;9.72;73.19;99761.13;685011;28;1552;-86
2021/12/24 01:00:15;;;;;;;45.13;26.60;;;;;;;9.76;73.35;99762.06;685174;28;1401;-87
2021/12/24 01:00:38;;;;;;;44.17;25.60;;;;;;;9.81;73.08;99776.06;690790;28;909;-86
2021/12/24 01:00:59;;;;;;;45.80;25.40;;;;;;;9.82;73.00;99767.38;687254;28;1289;-86
2021/12/24 01:01:20;;;;;;;44.58;24.55;;;;;;;9.78;73.00;99760.38;687974;28;1213;-86
2021/12/24 01:01:41;;;;;;;45.25;25.10;;;;;;;9.79;72.85;99772.56;686938;28;1334;-86
2021/12/24 01:02:03;;;;;;;45.20;25.15;;;;;;;9.76;72.80;99761.22;684996;28;1171;-87
2021/12/24 01:02:25;;;;;;;46.75;25.98;;;;;;;9.80;72.87;99774.31;686284;28;1504;-87
2021/12/24 01:02:48;;;;;;;46.25;25.80;;;;;;;9.76;72.88;99761.22;687999;28;1064;-87
2021/12/24 01:03:10;;;;;;;45.55;25.40;;;;;;;9.79;73.01;99759.53;685119;28;1314;-87
2021/12/24 01:03:31;;;;;;;45.83;25.45;;;;;;;9.76;73.11;99758.59;685348;28;1295;-87
2021/12/24 01:03:52;;;;;;;47.42;26.20;;;;;;;9.76;72.78;99762.06;683991;28;1184;-86
2021/12/24 01:04:12;;;;;;;48.90;26.80;;;;;;;9.75;72.92;99762.06;685200;28;945;-86
2021/12/24 01:04:33;;;;;;;46.35;26.20;;;;;;;9.79;73.20;99764.75;685449;28;764;-87
2021/12/24 01:04:53;;;;;;;47.33;25.58;;;;;;;9.81;73.18;99768.22;684981;28;1151;-86
2021/12/24 01:05:16;;;;;;;47.07;25.30;;;;;;;9.75;72.84;99765.53;690548;28;1208;-86
2021/12/24 01:05:37;;;;;;;49.65;26.10;;;;;;;9.78;72.87;99770.81;688344;28;1482;-86
2021/12/24 01:05:59;;;;;;;49.88;26.35;;;;;;;9.75;73.16;99759.47;688403;28;1859;-85
2021/12/24 01:06:20;;;;;;;47.42;26.08;;;;;;;9.74;72.76;99753.34;679973;29;1196;-87
2021/12/24 01:06:40;;;;;;;45.92;26.08;;;;;;;9.77;72.84;99763.81;682625;28;1255;-87
2021/12/24 01:07:01;;;;;;;44.80;25.40;;;;;;;9.77;73.11;99773.38;686973;28;1410;-87
2021/12/24 01:07:22;;;;;;;45.63;25.58;;;;;;;9.75;73.00;99770.75;682714;28;1380;-87
2021/12/24 01:07:45;;;;;;;45.10;25.30;;;;;;;9.76;73.21;99767.28;682784;28;1143;-86
2021/12/24 01:08:08;;;;;;;42.30;25.67;;;;;;;9.84;73.12;99767.41;685775;28;1275;-86
2021/12/24 01:08:29;;;;;;;41.50;25.52;;;;;;;9.76;73.06;99759.47;687950;28;1412;-87
2021/12/24 01:08:50;;;;;;;44.33;26.23;;;;;;;9.80;73.25;99755.19;685741;28;1358;-86
2021/12/24 01:09:11;;;;;;;46.53;26.45;;;;;;;9.80;73.11;99752.56;679550;29;1145;-86
2021/12/24 01:09:33;;;;;;;46.17;26.02;;;;;;;9.81;72.87;99754.31;683825;28;1315;-86
2021/12/24 01:09:54;;;;;;;44.03;25.35;;;;;;;9.83;72.85;99763.06;683625;28;1063;-86
2021/12/24 01:10:17;;;;;;;43.53;24.70;;;;;;;9.86;72.93;99769.19;685300;28;1099;-86
2021/12/24 01:10:45;;;;;;;43.10;24.35;;;;;;;9.85;73.03;99767.41;685369;28;1548;-86
2021/12/24 01:11:09;;;;;;;43.75;24.95;;;;;;;9.84;73.29;99765.66;683891;28;1453;-86
2021/12/24 01:11:30;;;;;;;43.10;25.30;;;;;;;9.84;73.14;99765.66;683738;28;1198;-85
2021/12/24 01:11:51;;;;;;;45.83;25.70;;;;;;;9.78;73.05;99749.97;685194;28;1309;-86
2021/12/24 01:12:13;;;;;;;49.03;26.07;;;;;;;9.82;72.97;99756.06;684907;28;1046;-84
2021/12/24 01:12:34;;;;;;;49.85;26.73;;;;;;;9.84;73.08;99765.66;681978;28;1939;-84
2021/12/24 01:12:56;;;;;;;47.35;27.08;;;;;;;9.78;72.80;99754.28;684421;28;1330;-83
2021/12/24 01:13:16;;;;;;;47.67;27.55;;;;;;;9.81;72.77;99760.41;682294;28;1299;-85
2021/12/24 01:13:37;;;;;;;47.50;27.42;;;;;;;9.81;72.98;99755.22;685290;28;789;-84
2021/12/24 01:13:59;;;;;;;45.78;26.90;;;;;;;9.85;72.96;99745.72;684396;28;2068;-83
2021/12/24 01:14:21;;;;;;;46.63;26.52;;;;;;;9.84;72.95;99755.25;684684;28;1418;-83
2021/12/24 01:14:46;;;;;;;46.03;26.35;;;;;;;9.90;73.05;99754.47;684406;28;1136;-82
2021/12/24 01:15:08;;;;;;;46.60;26.52;;;;;;;9.93;72.97;99764.03;682706;28;1102;-83
2021/12/24 01:15:30;;;;;;;46.75;26.75;;;;;;;9.92;73.16;99754.47;682468;28;1503;-83
2021/12/24 01:16:25;;;;;;;47.85;27.10;;;;;;;9.97;72.79;99768.47;687952;28;976;-84
2021/12/24 01:16:57;;;;;;;47.40;26.38;;;;;;;9.94;72.73;99744.97;690586;28;1110;-84
2021/12/24 01:17:37;;;;;;;46.88;25.40;;;;;;;9.97;72.79;99751.06;685104;28;1355;-82
2021/12/24 01:19:32;;;;;;;44.38;26.75;;;;;;;9.95;72.68;99752.78;684808;28;1324;-82
2021/12/24 01:19:58;;;;;;;43.80;26.00;;;;;;;10.01;72.69;99754.59;684338;28;1264;-83
2021/12/24 01:20:29;;;;;;;44.08;26.38;;;;;;;9.97;72.81;99742.41;687927;28;980;-83
2021/12/24 01:21:54;;;;;;;43.00;25.23;;;;;;;9.95;72.83;99751.94;687324;28;1179;-82
2021/12/24 01:23:46;;;;;;;39.15;23.88;;;;;;;9.95;72.81;99754.53;685313;28;871;-82
2021/12/24 01:24:13;;;;;;;39.00;22.70;;;;;;;9.97;72.87;99753.69;685556;28;1187;-82
2021/12/24 01:24:44;;;;;;;40.38;22.52;;;;;;;9.91;72.76;99745.81;684628;28;1407;-82
2021/12/24 01:26:05;;;;;;;38.22;22.65;;;;;;;9.97;72.91;99750.22;682563;28;1088;-82
2021/12/24 01:27:39;;;;;;;37.63;23.10;;;;;;;9.93;72.90;99743.19;682617;29;1077;-83
2021/12/24 01:29:18;;;;;;;37.40;23.80;;;;;;;9.94;72.80;99751.03;688966;28;1330;-82
2021/12/24 01:29:20;;;;;;;36.33;24.25;;;;;;;9.98;72.88;99754.56;687492;28;1077;-81
2021/12/24 01:38:09;;;;;;;37.20;22.55;;;;;;;10.01;72.66;99734.63;689706;28;1059;-82
2021/12/24 01:38:48;;;;;;;37.83;22.58;;;;;;;9.99;72.97;99743.28;686587;28;1379;-81
2021/12/24 01:39:52;;;;;;;38.08;23.50;;;;;;;9.98;73.23;99741.53;685240;28;1597;-81
2021/12/24 01:42:59;;;;;;;38.60;23.90;;;;;;;10.01;72.92;99737.25;689762;28;1175;-83
2021/12/24 01:43:20;;;;;;;42.28;24.20;;;;;;;10.06;72.84;99739.91;688870;28;1762;-85
2021/12/24 01:43:41;;;;;;;42.17;24.45;;;;;;;10.04;72.70;99727.72;685224;28;1123;-85
2021/12/24 01:44:02;;;;;;;42.22;24.80;;;;;;;10.03;72.91;99729.47;685054;28;1297;-85
2021/12/24 01:44:28;;;;;;;39.20;24.45;;;;;;;10.03;72.98;99734.66;685319;28;1210;-85
2021/12/24 01:44:54;;;;;;;39.95;24.25;;;;;;;10.04;73.01;99738.13;685019;28;1314;-85
2021/12/24 01:45:28;;;;;;;39.83;24.23;;;;;;;10.01;72.89;99734.63;682616;29;1313;-85
2021/12/24 01:45:52;;;;;;;40.28;24.20;;;;;;;10.03;72.68;99733.78;683401;28;1244;-82
2021/12/24 01:46:12;;;;;;;38.25;23.80;;;;;;;10.07;72.72;99727.78;682522;28;1220;-82
2021/12/24 01:46:33;;;;;;;40.00;24.10;;;;;;;10.02;72.87;99732.91;682480;29;1135;-82
2021/12/24 01:46:59;;;;;;;37.45;23.30;;;;;;;9.98;72.85;99731.13;682702;28;1338;-82
2021/12/24 01:47:20;;;;;;;38.35;23.85;;;;;;;10.03;72.80;99732.06;682258;28;1766;-82
2021/12/24 01:47:40;;;;;;;37.10;24.03;;;;;;;10.00;72.77;99735.50;682711;29;801;-81
2021/12/24 01:48:07;;;;;;;37.95;24.65;;;;;;;10.00;72.81;99742.44;690371;28;1297;-82
2021/12/24 01:48:27;;;;;;;40.15;24.70;;;;;;;9.99;72.70;99740.69;691049;28;1447;-82
2021/12/24 01:48:48;;;;;;;41.00;25.10;;;;;;;9.99;73.08;99743.28;685185;28;1254;-83
2021/12/24 01:49:09;;;;;;;40.37;24.73;;;;;;;9.99;73.02;99738.06;682664;28;1181;-82
2021/12/24 01:49:30;;;;;;;40.28;24.65;;;;;;;9.98;73.12;99745.03;682132;28;778;-82
2021/12/24 01:49:51;;;;;;;40.45;24.77;;;;;;;9.99;73.26;99732.84;684832;28;1855;-82
2021/12/24 01:50:14;;;;;;;41.33;24.77;;;;;;;10.02;72.82;99743.34;685949;28;1369;-82
2021/12/24 01:50:38;;;;;;;38.90;24.02;;;;;;;10.04;73.09;99736.41;682589;28;1262;-83
2021/12/24 01:50:59;;;;;;;40.65;24.45;;;;;;;10.00;72.93;99738.09;684620;28;1073;-82
2021/12/24 01:51:29;;;;;;;39.33;24.90;;;;;;;9.98;73.14;99726.78;685310;28;871;-82
2021/12/24 01:51:52;;;;;;;37.38;23.85;;;;;;;9.99;72.60;99748.50;685405;28;1374;-81
2021/12/24 01:52:15;;;;;;;37.50;23.90;;;;;;;10.03;72.84;99734.66;682496;28;1342;-82
2021/12/24 01:52:38;;;;;;;40.08;25.25;;;;;;;10.03;73.04;99745.09;685299;28;1895;-83
2021/12/24 01:53:00;;;;;;;39.78;25.63;;;;;;;10.02;73.35;99748.56;689971;28;1336;-82
2021/12/24 01:53:24;;;;;;;40.92;25.70;;;;;;;10.01;73.09;99737.25;686652;28;1202;-82
2021/12/24 01:53:46;;;;;;;43.28;26.13;;;;;;;9.98;73.26;99736.31;682718;28;1049;-82
2021/12/24 01:54:10;;;;;;;43.92;26.23;;;;;;;9.94;73.21;99722.38;682462;29;1171;-82
2021/12/24 01:54:31;;;;;;;41.45;25.35;;;;;;;9.97;72.89;99732.81;682503;29;812;-82
2021/12/24 01:54:52;;;;;;;41.80;24.98;;;;;;;10.01;73.11;99744.16;686883;28;1643;-82
2021/12/24 01:55:12;;;;;;;40.20;24.52;;;;;;;10.00;73.04;99740.72;687754;28;1216;-82
2021/12/24 01:55:34;;;;;;;40.08;24.70;;;;;;;9.93;73.06;99723.22;687917;28;1717;-82
2021/12/24 01:55:55;;;;;;;39.83;25.50;;;;;;;9.94;72.97;99730.19;686920;28;1092;-82
2021/12/24 01:56:18;;;;;;;42.97;26.35;;;;;;;9.98;73.30;99736.31;682435;28;1069;-82
2021/12/24 01:56:39;;;;;;;45.30;27.07;;;;;;;9.99;73.49;99730.25;679819;29;1202;-82
2021/12/24 01:57:00;;;;;;;46.37;27.00;;;;;;;9.96;73.14;99732.84;686123;28;1333;-81
2021/12/24 01:57:21;;;;;;;45.05;26.60;;;;;;;9.98;73.39;99738.94;685219;28;1052;-82
2021/12/24 01:57:43;;;;;;;40.97;25.48;;;;;;;10.03;73.39;99744.22;684264;28;922;-82
2021/12/24 01:58:04;;;;;;;39.00;25.67;;;;;;;9.98;73.13;99731.13;685017;28;1247;-82
2021/12/24 01:58:26;;;;;;;41.20;26.08;;;;;;;10.04;73.24;99744.25;684939;28;1574;-82
2021/12/24 01:58:47;;;;;;;42.50;26.38;;;;;;;9.97;73.05;99725.00;682423;28;1424;-83
2021/12/24 01:59:08;;;;;;;42.72;26.08;;;;;;;10.02;73.15;99732.91;684651;28;1312;-83
2021/12/24 01:59:29;;;;;;;43.03;26.15;;;;;;;10.03;73.38;99732.06;682054;28;768;-82
2021/12/24 01:59:50;;;;;;;43.00;26.15;;;;;;;10.03;73.20;99726.84;686126;28;1067;-82
2021/12/24 02:00:14;;;;;;;41.65;26.02;;;;;;;9.98;72.87;99720.69;687720;28;1078;-82
2021/12/24 02:00:38;;;;;;;39.25;25.50;;;;;;;10.04;73.13;99744.25;682573;29;828;-82
2021/12/24 02:00:59;;;;;;;39.92;25.08;;;;;;;10.01;73.08;99725.94;692454;28;1540;-81
2021/12/24 02:01:25;;;;;;;39.92;24.75;;;;;;;10.05;73.15;99743.38;690483;28;1027;-82
2021/12/24 02:01:46;;;;;;;41.25;25.20;;;;;;;9.97;73.09;99740.66;687707;28;1965;-82
2021/12/24 02:02:07;;;;;;;40.80;24.98;;;;;;;10.02;72.87;99727.72;685118;28;1502;-81
2021/12/24 02:02:28;;;;;;;41.95;25.00;;;;;;;9.99;72.97;99732.84;687867;28;874;-82
2021/12/24 02:02:49;;;;;;;41.35;25.40;;;;;;;10.00;72.88;99730.28;685180;28;1119;-81
2021/12/24 02:03:12;;;;;;;42.88;25.58;;;;;;;9.98;73.12;99724.19;684707;28;1045;-82
2021/12/24 02:03:34;;;;;;;41.63;25.30;;;;;;;9.94;73.20;99716.31;682543;28;1618;-82
2021/12/24 02:03:55;;;;;;;42.92;25.35;;;;;;;9.97;72.86;99731.97;685770;28;1377;-82
2021/12/24 02:04:17;;;;;;;41.13;24.97;;;;;;;10.02;72.84;99730.31;685119;28;1059;-82
2021/12/24 02:04:37;;;;;;;44.55;25.85;;;;;;;9.98;73.14;99718.09;685018;28;1160;-82
2021/12/24 02:04:58;;;;;;;44.93;26.70;;;;;;;9.99;73.03;99728.53;687190;28;1243;-82
2021/12/24 02:05:19;;;;;;;43.10;27.15;;;;;;;9.96;73.35;99731.09;684893;28;1219;-81
2021/12/24 02:05:41;;;;;;;42.33;26.65;;;;;;;9.97;73.50;99724.16;679094;29;1279;-81
2021/12/24 02:06:02;;;;;;;40.50;25.92;;;;;;;9.92;73.20;99725.81;684753;28;1368;-82
2021/12/24 02:06:23;;;;;;;39.42;25.20;;;;;;;9.95;73.54;99720.66;684999;28;839;-82
2021/12/24 02:06:44;;;;;;;40.35;25.17;;;;;;;10.02;73.26;99722.50;682896;28;1052;-82
2021/12/24 02:07:05;;;;;;;44.42;25.88;;;;;;;9.94;73.21;99703.28;689888;28;1515;-83
2021/12/24 02:07:26;;;;;;;45.33;25.87;;;;;;;10.00;73.11;99721.56;685209;28;1138;-81
2021/12/24 02:07:47;;;;;;;43.17;25.50;;;;;;;10.00;73.32;99718.97;686302;28;1162;-82
2021/12/24 02:08:09;;;;;;;39.65;24.42;;;;;;;10.01;73.17;99728.53;689313;28;1251;-82
2021/12/24 02:08:30;;;;;;;38.38;23.60;;;;;;;10.00;73.40;99718.97;687735;28;1334;-82
2021/12/24 02:08:50;;;;;;;39.83;23.80;;;;;;;10.02;72.89;99725.09;686198;28;1278;-82
2021/12/24 02:09:12;;;;;;;40.73;24.40;;;;;;;10.04;73.21;99731.19;684799;28;1178;-82
2021/12/24 02:09:34;;;;;;;40.40;24.58;;;;;;;10.04;73.07;99728.59;689074;28;1341;-82
2021/12/24 02:09:55;;;;;;;39.85;24.50;;;;;;;10.02;73.04;99722.50;690162;28;1295;-82
2021/12/24 02:10:17;;;;;;;41.30;24.83;;;;;;;10.05;73.32;99717.31;690483;28;972;-82
2021/12/24 02:10:39;;;;;;;44.17;25.50;;;;;;;9.99;73.29;99709.41;682484;28;1204;-82
2021/12/24 02:11:00;;;;;;;42.13;25.58;;;;;;;10.03;73.11;99718.13;690074;28;1425;-82
2021/12/24 02:11:23;;;;;;;39.83;24.52;;;;;;;9.98;72.94;99720.69;686686;28;1340;-82
2021/12/24 02:11:45;;;;;;;38.10;24.27;;;;;;;10.02;73.15;99732.91;685049;28;1234;-82
2021/12/24 02:12:09;;;;;;;37.28;24.38;;;;;;;9.98;73.05;99736.31;687788;28;972;-82
2021/12/24 02:12:32;;;;;;;40.30;25.35;;;;;;;10.04;73.06;99719.88;687922;28;1907;-81
2021/12/24 02:12:54;;;;;;;39.47;25.88;;;;;;;10.02;72.93;99712.06;687533;28;1170;-82
2021/12/24 02:13:15;;;;;;;40.47;26.08;;;;;;;9.99;73.02;99717.22;682442;28;1551;-82
2021/12/24 02:13:40;;;;;;;41.72;26.05;;;;;;;9.97;73.05;99713.72;682378;28;1323;-82
2021/12/24 02:14:09;;;;;;;42.13;26.92;;;;;;;9.99;73.04;99706.78;682268;29;1325;-83
2021/12/24 02:14:35;;;;;;;43.17;26.30;;;;;;;9.98;73.16;99712.88;685740;28;1619;-82
2021/12/24 02:14:58;;;;;;;42.88;26.73;;;;;;;9.98;73.31;99721.59;686725;28;1820;-81
2021/12/24 02:15:29;;;;;;;41.15;26.00;;;;;;;9.99;73.32;99722.44;693205;28;1460;-82
2021/12/24 02:16:38;;;;;;;39.72;25.83;;;;;;;10.02;73.24;99717.28;683605;28;1028;-82
2021/12/24 02:17:57;;;;;;;40.15;26.08;;;;;;;10.02;73.02;99722.50;685117;28;1393;-82
2021/12/24 02:28:25;;;;;;;45.78;26.77;;;;;;;10.04;73.19;99720.78;688853;28;1394;-82
2021/12/24 02:28:46;;;;;;;43.83;27.90;;;;;;;9.98;73.10;99699.84;687708;28;1940;-82
2021/12/24 02:29:12;;;;;;;41.63;26.88;;;;;;;10.00;73.47;99709.44;687585;28;1060;-81
2021/12/24 02:29:33;;;;;;;46.47;27.50;;;;;;;9.99;73.23;99706.78;682150;28;1137;-83
2021/12/24 02:29:53;;;;;;;47.70;28.30;;;;;;;9.99;73.26;99704.19;684921;28;1188;-82
2021/12/24 02:30:15;;;;;;;48.08;28.35;;;;;;;10.01;73.44;99707.69;684780;28;1059;-81
2021/12/24 02:30:36;;;;;;;44.45;27.55;;;;;;;9.96;73.16;99702.41;679854;29;1373;-81
2021/12/24 02:30:57;;;;;;;43.10;26.60;;;;;;;10.02;73.29;99727.72;684254;28;1322;-81
2021/12/24 02:31:34;;;;;;;42.78;26.00;;;;;;;10.00;73.21;99708.53;684909;28;1397;-81
2021/12/24 02:31:54;;;;;;;41.38;25.55;;;;;;;10.01;73.29;99710.28;690366;28;1101;-81
2021/12/24 02:32:15;;;;;;;42.40;26.00;;;;;;;9.98;73.28;99705.06;685050;28;1200;-81
2021/12/24 02:32:40;;;;;;;42.15;26.15;;;;;;;10.01;73.45;99707.69;684630;28;1907;-82
2021/12/24 02:33:03;;;;;;;41.17;25.30;;;;;;;10.02;73.29;99712.06;685702;28;1254;-81
2021/12/24 02:33:24;;;;;;;41.25;25.13;;;;;;;10.04;73.07;99710.34;685226;28;1988;-82
2021/12/24 02:33:45;;;;;;;42.00;25.20;;;;;;;10.01;73.21;99715.50;684402;28;1325;-82
2021/12/24 02:34:06;;;;;;;40.78;25.00;;;;;;;10.06;73.42;99719.06;684921;28;1161;-82
2021/12/24 02:34:26;;;;;;;40.50;25.27;;;;;;;10.02;73.33;99706.84;682437;28;1130;-82
2021/12/24 02:34:47;;;;;;;42.00;25.73;;;;;;;10.03;73.42;99700.78;688088;28;1282;-81
2021/12/24 02:35:09;;;;;;;41.83;25.83;;;;;;;10.00;73.42;99699.00;684883;28;1282;-81
2021/12/24 02:35:32;;;;;;;42.28;26.10;;;;;;;10.01;73.42;99711.19;682545;29;823;-81
2021/12/24 02:35:52;;;;;;;39.33;25.30;;;;;;;10.04;73.39;99726.00;687285;28;1208;-82
2021/12/24 02:36:14;;;;;;;38.88;25.25;;;;;;;10.03;73.39;99713.81;684923;28;1256;-82
2021/12/24 02:36:35;;;;;;;37.80;24.42;;;;;;;10.05;73.22;99716.41;682416;28;1206;-81
2021/12/24 02:36:56;;;;;;;38.85;24.38;;;;;;;10.03;73.42;99703.38;682831;28;1189;-82
2021/12/24 02:37:17;;;;;;;39.42;24.50;;;;;;;10.03;73.27;99698.19;682569;28;1508;-82
2021/12/24 02:37:38;;;;;;;39.10;24.70;;;;;;;10.03;73.40;99705.09;679870;29;1415;-82
2021/12/24 02:38:00;;;;;;;39.28;25.33;;;;;;;10.01;73.28;99697.25;683728;28;1084;-82
2021/12/24 02:38:21;;;;;;;40.28;25.45;;;;;;;10.08;73.45;99708.66;682873;28;1761;-81
2021/12/24 02:38:43;;;;;;;40.97;25.95;;;;;;;10.06;73.49;99713.84;682444;29;1370;-82
2021/12/24 02:39:04;;;;;;;40.03;25.85;;;;;;;10.10;73.18;99705.22;685343;28;1400;-82
2021/12/24 02:39:25;;;;;;;40.38;26.30;;;;;;;10.05;73.23;99699.06;681720;29;1734;-82
2021/12/24 02:39:45;;;;;;;39.13;25.80;;;;;;;10.07;73.31;99705.16;682239;28;1678;-82
2021/12/24 02:40:07;;;;;;;39.35;25.90;;;;;;;10.11;73.05;99711.28;687741;28;980;-82
2021/12/24 02:40:28;;;;;;;41.65;25.48;;;;;;;10.06;73.13;99690.38;685053;28;1414;-82
2021/12/24 02:40:49;;;;;;;42.78;25.70;;;;;;;10.13;72.97;99705.25;680420;28;1243;-82
2021/12/24 02:41:12;;;;;;;40.97;25.90;;;;;;;10.08;73.40;99698.22;683948;28;1581;-82